createdAt,value
2023-05-10T00:00:35.756Z,2.20
2023-05-10T00:02:37.810Z,2.03
2023-05-10T00:04:39.689Z,2.35
2023-05-10T00:06:41.598Z,2.45
2023-05-10T00:08:43.418Z,1.83
2023-05-10T00:10:45.366Z,2.15
2023-05-10T00:12:47.278Z,2.15
2023-05-10T00:14:51.717Z,2.20
2023-05-10T00:16:53.649Z,2.15
2023-05-10T00:18:55.798Z,2.25
2023-05-10T00:20:57.696Z,2.63
2023-05-10T00:22:59.468Z,1.90
2023-05-10T00:25:01.433Z,2.67
2023-05-10T00:27:05.168Z,2.83
2023-05-10T00:29:06.897Z,2.72
2023-05-10T00:31:08.854Z,3.00
2023-05-10T00:33:10.888Z,2.53
2023-05-10T00:35:13.020Z,3.08
2023-05-10T00:37:15.089Z,2.72
2023-05-10T00:39:16.988Z,3.08
2023-05-10T00:41:18.918Z,3.38
2023-05-10T00:43:20.860Z,3.40
2023-05-10T00:45:22.807Z,3.58
2023-05-10T00:47:25.052Z,4.53
2023-05-10T00:49:27.111Z,3.13
2023-05-10T00:51:31.808Z,3.20
2023-05-10T00:53:39.572Z,3.17
2023-05-10T00:55:41.612Z,3.10
2023-05-10T00:57:44.394Z,3.28
2023-05-10T00:59:47.308Z,2.97
2023-05-10T01:01:49.322Z,3.50
2023-05-10T01:03:52.088Z,3.25
2023-05-10T01:05:53.972Z,3.20
2023-05-10T01:07:55.881Z,2.95
2023-05-10T01:09:58.659Z,3.58
2023-05-10T01:12:02.155Z,3.28
2023-05-10T01:14:04.740Z,3.45
2023-05-10T01:16:08.520Z,3.00
2023-05-10T01:18:10.603Z,3.20
2023-05-10T01:20:13.958Z,3.28
2023-05-10T01:22:26.036Z,3.22
2023-05-10T01:24:47.092Z,3.30
2023-05-10T01:26:59.002Z,2.88
2023-05-10T01:29:11.419Z,2.92
2023-05-10T01:31:33.102Z,3.70
2023-05-10T01:33:53.285Z,3.55
2023-05-10T01:36:01.986Z,2.70
2023-05-10T01:38:23.162Z,3.03
2023-05-10T01:40:34.444Z,3.17
2023-05-10T01:42:49.072Z,3.03
2023-05-10T01:45:08.208Z,3.08
2023-05-10T01:47:11.566Z,2.65
2023-05-10T01:49:25.077Z,2.90
2023-05-10T01:51:32.467Z,3.05
2023-05-10T01:53:40.198Z,2.90
2023-05-10T01:55:48.657Z,2.75
2023-05-10T01:57:57.632Z,2.67
2023-05-10T02:00:00.475Z,3.22
2023-05-10T02:02:03.593Z,3.25
2023-05-10T02:04:07.472Z,3.25
2023-05-10T02:06:11.522Z,2.85
2023-05-10T02:08:15.688Z,3.33
2023-05-10T02:10:19.198Z,3.58
2023-05-10T02:12:22.197Z,3.00
2023-05-10T02:14:25.560Z,2.78
2023-05-10T02:16:28.406Z,3.70
2023-05-10T02:18:32.214Z,2.97
2023-05-10T02:20:36.127Z,3.28
2023-05-10T02:22:39.813Z,3.50
2023-05-10T02:24:43.196Z,3.42
2023-05-10T02:26:46.352Z,3.45
2023-05-10T02:28:50.350Z,2.88
2023-05-10T02:30:53.377Z,2.83
2023-05-10T02:32:56.054Z,2.90
2023-05-10T02:34:58.435Z,2.63
2023-05-10T02:37:00.862Z,2.50
2023-05-10T02:39:05.983Z,2.13
2023-05-10T02:41:09.666Z,2.42
2023-05-10T02:43:15.405Z,2.58
2023-05-10T02:45:22.933Z,2.15
2023-05-10T02:47:24.904Z,2.30
2023-05-10T02:49:26.782Z,2.30
2023-05-10T02:51:34.786Z,1.80
2023-05-10T02:53:42.099Z,2.20
2023-05-10T02:55:48.713Z,2.25
2023-05-10T02:57:56.519Z,2.30
2023-05-10T02:59:58.690Z,2.33
2023-05-10T03:02:03.157Z,2.60
2023-05-10T03:04:05.580Z,2.08
2023-05-10T03:06:07.570Z,2.25
2023-05-10T03:08:09.843Z,2.35
2023-05-10T03:10:13.173Z,2.25
2023-05-10T03:12:34.799Z,2.30
2023-05-10T03:14:47.000Z,2.83
2023-05-10T03:17:03.575Z,2.30
2023-05-10T03:19:22.120Z,2.17
2023-05-10T03:21:32.051Z,2.28
2023-05-10T03:23:42.929Z,2.53
2023-05-10T03:27:48.051Z,2.92
2023-05-10T03:29:52.083Z,2.75
2023-05-10T03:31:54.026Z,2.13
2023-05-10T03:33:56.114Z,2.45
2023-05-10T03:35:58.182Z,2.92
2023-05-10T03:38:00.234Z,2.90
2023-05-10T03:40:02.939Z,3.05
2023-05-10T03:42:05.058Z,2.53
2023-05-10T03:44:06.925Z,2.38
2023-05-10T03:46:08.754Z,2.80
2023-05-10T03:48:10.626Z,2.30
2023-05-10T03:50:15.185Z,3.00
2023-05-10T03:52:17.651Z,2.70
2023-05-10T03:54:19.570Z,2.53
2023-05-10T03:56:21.971Z,2.35
2023-05-10T03:58:23.943Z,2.70
2023-05-10T04:00:26.138Z,2.40
2023-05-10T04:02:28.257Z,2.40
2023-05-10T04:04:30.180Z,2.55
2023-05-10T04:06:32.130Z,2.42
2023-05-10T04:08:34.022Z,2.40
2023-05-10T04:10:36.055Z,2.60
2023-05-10T04:12:37.862Z,2.58
2023-05-10T04:14:39.740Z,2.58
2023-05-10T04:16:41.681Z,2.38
2023-05-10T04:18:43.583Z,2.65
2023-05-10T04:20:45.303Z,2.50
2023-05-10T04:22:47.286Z,2.70
2023-05-10T04:24:49.335Z,2.70
2023-05-10T04:26:51.255Z,2.90
2023-05-10T04:28:53.158Z,3.08
2023-05-10T04:30:54.986Z,3.17
2023-05-10T04:32:56.921Z,3.08
2023-05-10T04:34:58.823Z,2.63
2023-05-10T04:37:00.839Z,3.13
2023-05-10T04:39:04.816Z,2.78
2023-05-10T04:41:09.469Z,2.80
2023-05-10T04:43:11.273Z,2.95
2023-05-10T04:45:13.380Z,3.30
2023-05-10T04:47:15.202Z,3.45
2023-05-10T04:49:20.368Z,3.17
2023-05-10T04:51:25.562Z,2.85
2023-05-10T04:53:27.604Z,2.72
2023-05-10T04:55:32.155Z,2.78
2023-05-10T04:57:39.160Z,2.92
2023-05-10T04:59:40.972Z,2.60
2023-05-10T05:01:43.127Z,3.40
2023-05-10T05:03:45.341Z,3.05
2023-05-10T05:05:49.636Z,3.50
2023-05-10T05:07:51.901Z,3.08
2023-05-10T05:09:53.804Z,3.30
2023-05-10T05:11:55.686Z,3.38
2023-05-10T05:13:57.649Z,4.30
2023-05-10T05:16:02.484Z,5.10
2023-05-10T05:18:04.595Z,4.95
2023-05-10T05:20:07.391Z,5.88
2023-05-10T05:22:11.552Z,6.05
2023-05-10T05:24:13.816Z,6.97
2023-05-10T05:26:16.249Z,6.20
2023-05-10T05:28:18.141Z,7.15
2023-05-10T05:30:20.250Z,7.07
2023-05-10T05:32:22.839Z,6.65
2023-05-10T05:34:25.413Z,7.05
2023-05-10T05:36:27.413Z,6.88
2023-05-10T05:38:29.542Z,6.90
2023-05-10T05:40:31.438Z,6.90
2023-05-10T05:42:33.860Z,6.82
2023-05-10T05:44:35.878Z,6.90
2023-05-10T05:46:37.656Z,6.88
2023-05-10T05:48:39.637Z,6.68
2023-05-10T05:50:41.539Z,5.72
2023-05-10T05:52:43.458Z,6.13
2023-05-10T05:54:47.746Z,6.15
2023-05-10T05:56:49.655Z,5.82
2023-05-10T05:58:52.458Z,6.43
2023-05-10T06:00:54.300Z,5.43
2023-05-10T06:02:56.471Z,6.00
2023-05-10T06:04:58.770Z,5.97
2023-05-10T06:07:00.597Z,6.03
2023-05-10T06:09:02.759Z,5.70
2023-05-10T06:11:05.337Z,5.75
2023-05-10T06:13:07.488Z,5.53
2023-05-10T06:15:10.464Z,5.88
2023-05-10T06:17:12.278Z,4.95
2023-05-10T06:19:14.238Z,4.78
2023-05-10T06:21:17.377Z,5.53
2023-05-10T06:23:20.041Z,5.18
2023-05-10T06:25:22.434Z,4.93
2023-05-10T06:27:24.253Z,5.28
2023-05-10T06:29:26.290Z,5.03
2023-05-10T06:31:28.260Z,5.43
2023-05-10T06:33:35.411Z,5.15
2023-05-10T06:35:37.848Z,5.82
2023-05-10T06:37:40.755Z,5.05
2023-05-10T06:39:42.644Z,4.38
2023-05-10T06:41:44.539Z,4.97
2023-05-10T06:43:46.615Z,4.40
2023-05-10T06:45:49.840Z,5.40
2023-05-10T06:47:51.928Z,4.78
2023-05-10T06:49:53.821Z,4.15
2023-05-10T06:51:57.416Z,4.50
2023-05-10T06:53:59.242Z,4.28
2023-05-10T06:56:01.146Z,3.95
2023-05-10T06:58:03.297Z,4.40
2023-05-10T07:00:06.496Z,4.97
2023-05-10T07:02:08.682Z,5.00
2023-05-10T07:04:10.533Z,4.80
2023-05-10T07:06:21.775Z,4.57
2023-05-10T07:08:33.279Z,4.85
2023-05-10T07:10:35.262Z,4.53
2023-05-10T07:12:37.288Z,3.97
2023-05-10T07:14:39.168Z,4.18
2023-05-10T07:16:41.082Z,3.72
2023-05-10T07:18:43.069Z,4.30
2023-05-10T07:20:45.058Z,4.45
2023-05-10T07:22:47.021Z,4.18
2023-05-10T07:24:49.035Z,4.30
2023-05-10T07:26:51.228Z,4.35
2023-05-10T07:28:53.060Z,4.28
2023-05-10T07:30:55.025Z,3.67
2023-05-10T07:32:57.057Z,3.40
2023-05-10T07:34:59.100Z,4.15
2023-05-10T07:37:01.575Z,3.50
2023-05-10T07:39:03.617Z,3.20
2023-05-10T07:41:05.479Z,2.78
2023-05-10T07:43:07.606Z,3.63
2023-05-10T07:45:10.299Z,2.83
2023-05-10T07:47:12.822Z,2.92
2023-05-10T07:49:14.825Z,2.65
2023-05-10T07:51:16.886Z,2.67
2023-05-10T07:53:19.853Z,2.25
2023-05-10T07:55:22.616Z,2.47
2023-05-10T07:57:24.682Z,3.60
2023-05-10T07:59:26.616Z,2.72
2023-05-10T08:01:36.093Z,2.47
2023-05-10T08:03:38.425Z,2.50
2023-05-10T08:05:40.387Z,2.38
2023-05-10T08:07:43.616Z,3.35
2023-05-10T08:09:45.656Z,2.50
2023-05-10T08:11:47.708Z,3.13
2023-05-10T08:13:51.261Z,2.60
2023-05-10T08:15:54.366Z,2.40
2023-05-10T08:17:56.275Z,2.45
2023-05-10T08:19:58.310Z,2.90
2023-05-10T08:22:00.251Z,3.08
2023-05-10T08:24:02.135Z,3.10
2023-05-10T08:26:04.375Z,2.97
2023-05-10T08:28:06.441Z,3.08
2023-05-10T08:30:09.652Z,2.63
2023-05-10T08:32:11.687Z,3.55
2023-05-10T08:34:16.241Z,3.13
2023-05-10T08:36:22.707Z,2.97
2023-05-10T08:38:24.752Z,3.17
2023-05-10T08:40:27.915Z,2.67
2023-05-10T08:42:32.825Z,3.05
2023-05-10T08:44:37.410Z,2.67
2023-05-10T08:46:45.228Z,2.70
2023-05-10T08:48:50.579Z,2.75
2023-05-10T08:50:56.225Z,2.97
2023-05-10T08:53:04.341Z,2.90
2023-05-10T08:55:06.641Z,2.92
2023-05-10T08:57:12.568Z,2.78
2023-05-10T08:59:15.402Z,3.22
2023-05-10T09:01:19.570Z,3.22
2023-05-10T09:03:21.669Z,2.75
2023-05-10T09:05:24.005Z,2.88
2023-05-10T09:07:26.855Z,2.75
2023-05-10T09:09:31.362Z,3.10
2023-05-10T09:11:33.815Z,3.60
2023-05-10T09:13:40.087Z,3.05
2023-05-10T09:15:42.370Z,3.58
2023-05-10T09:17:45.900Z,2.85
2023-05-10T09:19:48.080Z,3.15
2023-05-10T09:21:50.870Z,3.30
2023-05-10T09:23:55.572Z,2.78
2023-05-10T09:26:08.292Z,3.15
2023-05-10T09:28:10.798Z,3.08
2023-05-10T09:30:24.227Z,2.85
2023-05-10T09:32:46.380Z,2.80
2023-05-10T09:34:51.268Z,2.33
2023-05-10T09:36:58.941Z,2.95
2023-05-10T09:39:01.348Z,3.80
2023-05-10T09:41:03.805Z,2.92
2023-05-10T09:43:08.740Z,3.20
2023-05-10T09:45:11.589Z,3.08
2023-05-10T09:47:20.171Z,2.42
2023-05-10T09:49:23.327Z,2.90
2023-05-10T09:51:26.368Z,3.08
2023-05-10T09:53:28.397Z,3.08
2023-05-10T09:55:42.659Z,2.17
2023-05-10T09:57:44.852Z,2.35
2023-05-10T09:59:46.855Z,3.47
2023-05-10T10:01:52.520Z,2.83
2023-05-10T10:03:54.601Z,2.85
2023-05-10T10:05:57.173Z,2.60
2023-05-10T10:08:00.057Z,3.25
2023-05-10T10:10:02.276Z,2.78
2023-05-10T10:12:05.877Z,2.97
2023-05-10T10:14:07.915Z,2.63
2023-05-10T10:16:10.517Z,2.78
2023-05-10T10:18:16.749Z,2.55
2023-05-10T10:20:19.824Z,2.42
2023-05-10T10:22:22.008Z,2.50
2023-05-10T10:24:24.061Z,2.25
2023-05-10T10:26:26.562Z,2.20
2023-05-10T10:28:34.444Z,2.28
2023-05-10T10:30:49.745Z,2.25
2023-05-10T10:33:13.156Z,2.97
2023-05-10T10:35:19.195Z,1.65
2023-05-10T10:37:21.671Z,1.88
2023-05-10T10:39:26.483Z,2.00
2023-05-10T10:41:39.901Z,1.90
2023-05-10T10:43:47.252Z,1.30
2023-05-10T10:46:14.424Z,1.77
2023-05-10T10:48:24.783Z,2.05
2023-05-10T10:50:26.971Z,2.40
2023-05-10T10:52:35.231Z,2.42
2023-05-10T10:54:37.184Z,2.28
2023-05-10T10:56:39.448Z,2.72
2023-05-10T10:58:42.072Z,2.95
2023-05-10T11:00:46.561Z,2.80
2023-05-10T11:02:50.875Z,2.50
2023-05-10T11:04:52.863Z,2.15
2023-05-10T11:07:18.858Z,1.65
2023-05-10T11:09:21.855Z,1.42
2023-05-10T11:11:24.157Z,1.50
2023-05-10T11:13:39.520Z,1.08
2023-05-10T11:15:51.326Z,1.67
2023-05-10T11:17:53.742Z,1.45
2023-05-10T11:20:10.435Z,1.40
2023-05-10T11:22:12.854Z,1.17
2023-05-10T11:24:17.204Z,1.77
2023-05-10T11:26:19.947Z,1.00
2023-05-10T11:28:21.967Z,1.38
2023-05-10T11:30:24.039Z,1.40
2023-05-10T11:32:26.137Z,1.30
2023-05-10T11:34:31.602Z,1.90
2023-05-10T11:36:35.886Z,1.30
2023-05-10T11:38:37.811Z,1.30
2023-05-10T11:40:41.001Z,1.10
2023-05-10T11:42:42.972Z,1.95
2023-05-10T11:44:48.166Z,1.80
2023-05-10T11:46:50.737Z,1.45
2023-05-10T11:48:54.482Z,1.25
2023-05-10T11:50:58.223Z,1.30
2023-05-10T11:53:00.019Z,1.30
2023-05-10T11:55:02.276Z,1.70
2023-05-10T11:57:04.926Z,1.30
2023-05-10T11:59:06.938Z,1.27
2023-05-10T12:01:10.457Z,2.13
2023-05-10T12:03:12.838Z,1.20
2023-05-10T12:05:15.089Z,0.70
2023-05-10T12:07:18.308Z,1.27
2023-05-10T12:09:28.272Z,1.85
2023-05-10T12:11:45.041Z,1.38
2023-05-10T12:13:48.331Z,1.00
2023-05-10T12:15:50.214Z,1.30
2023-05-10T12:17:52.784Z,1.38
2023-05-10T12:19:54.961Z,1.60
2023-05-10T12:21:56.871Z,1.20
2023-05-10T12:24:04.476Z,1.08
2023-05-10T12:26:07.247Z,0.70
2023-05-10T12:28:10.834Z,0.63
2023-05-10T12:30:13.870Z,0.50
2023-05-10T12:32:15.877Z,0.70
2023-05-10T12:34:34.005Z,0.43
2023-05-10T12:36:39.800Z,0.70
2023-05-10T12:38:44.458Z,0.60
2023-05-10T12:40:51.031Z,0.75
2023-05-10T12:42:53.722Z,0.75
2023-05-10T12:44:58.425Z,0.88
2023-05-10T12:47:00.189Z,0.80
2023-05-10T12:49:08.908Z,1.25
2023-05-10T12:51:13.782Z,1.10
2023-05-10T12:53:16.861Z,0.70
2023-05-10T12:55:18.754Z,0.82
2023-05-10T12:57:22.666Z,1.48
2023-05-10T12:59:24.543Z,1.23
2023-05-10T13:01:26.506Z,1.23
2023-05-10T13:03:28.449Z,1.85
2023-05-10T13:05:34.303Z,1.70
2023-05-10T13:07:36.221Z,1.88
2023-05-10T13:09:39.763Z,1.25
2023-05-10T13:11:44.779Z,1.95
2023-05-10T13:13:46.647Z,1.83
2023-05-10T13:15:48.608Z,2.33
2023-05-10T13:17:50.645Z,1.90
2023-05-10T13:19:52.587Z,2.03
2023-05-10T13:21:54.642Z,2.10
2023-05-10T13:23:56.793Z,1.60
2023-05-10T13:25:58.748Z,2.08
2023-05-10T13:28:00.628Z,1.70
2023-05-10T13:30:04.454Z,1.45
2023-05-10T13:32:06.530Z,1.73
2023-05-10T13:34:08.730Z,1.58
2023-05-10T13:36:10.693Z,1.73
2023-05-10T13:38:13.876Z,1.63
2023-05-10T13:40:16.886Z,1.77
2023-05-10T13:42:19.595Z,1.55
2023-05-10T13:44:21.774Z,1.52
2023-05-10T13:46:27.016Z,1.70
2023-05-10T13:48:28.977Z,1.25
2023-05-10T13:50:33.310Z,1.40
2023-05-10T13:52:35.366Z,1.27
2023-05-10T13:54:38.219Z,0.70
2023-05-10T13:56:40.229Z,0.50
2023-05-10T13:58:42.453Z,1.52
2023-05-10T14:00:44.278Z,0.77
2023-05-10T14:02:46.318Z,0.52
2023-05-10T14:04:48.391Z,0.40
2023-05-10T14:06:50.287Z,0.47
2023-05-10T14:08:52.190Z,0.30
2023-05-10T14:10:54.156Z,0.55
2023-05-10T14:12:55.945Z,0.47
2023-05-10T14:14:59.614Z,0.30
2023-05-10T14:17:01.671Z,0.43
2023-05-10T14:19:04.050Z,0.50
2023-05-10T14:21:06.004Z,0.50
2023-05-10T14:23:10.433Z,0.80
2023-05-10T14:25:14.510Z,0.60
2023-05-10T14:27:17.166Z,0.80
2023-05-10T14:29:19.899Z,0.57
2023-05-10T14:31:21.997Z,0.80
2023-05-10T14:33:23.941Z,0.93
2023-05-10T14:35:26.231Z,0.68
2023-05-10T14:37:28.156Z,0.80
2023-05-10T14:39:32.074Z,0.82
2023-05-10T14:41:39.071Z,0.50
2023-05-10T14:43:41.844Z,0.55
2023-05-10T14:45:44.102Z,0.55
2023-05-10T14:47:46.067Z,0.60
2023-05-10T14:49:48.173Z,0.80
2023-05-10T14:51:50.238Z,1.20
2023-05-10T14:53:52.152Z,0.60
2023-05-10T14:55:54.258Z,0.95
2023-05-10T14:57:57.037Z,0.98
2023-05-10T15:00:04.167Z,1.00
2023-05-10T15:02:10.152Z,0.68
2023-05-10T15:04:14.586Z,1.08
2023-05-10T15:06:17.694Z,1.02
2023-05-10T15:08:19.797Z,0.88
2023-05-10T15:10:21.843Z,1.08
2023-05-10T15:12:23.890Z,0.90
2023-05-10T15:14:26.058Z,0.80
2023-05-10T15:16:28.100Z,0.80
2023-05-10T15:18:30.230Z,0.65
2023-05-10T15:20:32.071Z,0.40
2023-05-10T15:22:34.463Z,0.40
2023-05-10T15:24:36.509Z,0.50
2023-05-10T15:26:38.530Z,0.40
2023-05-10T15:28:40.565Z,0.52
2023-05-10T15:30:42.557Z,0.80
2023-05-10T15:32:44.662Z,0.88
2023-05-10T15:34:50.062Z,1.02
2023-05-10T15:36:52.441Z,1.10
2023-05-10T15:38:56.154Z,0.50
2023-05-10T15:40:59.684Z,0.60
2023-05-10T15:43:02.163Z,0.73
2023-05-10T15:45:08.448Z,0.80
2023-05-10T15:47:11.125Z,0.70
2023-05-10T15:49:13.953Z,0.88
2023-05-10T15:51:16.636Z,0.80
2023-05-10T15:53:19.223Z,0.85
2023-05-10T15:55:21.453Z,1.08
2023-05-10T15:57:23.949Z,0.93
2023-05-10T15:59:26.577Z,0.80
2023-05-10T16:01:29.542Z,0.80
2023-05-10T16:03:33.536Z,1.00
2023-05-10T16:05:37.393Z,0.90
2023-05-10T16:07:42.029Z,0.82
2023-05-10T16:09:44.706Z,0.80
2023-05-10T16:11:48.235Z,0.85
2023-05-10T16:13:50.834Z,0.70
2023-05-10T16:15:53.968Z,1.08
2023-05-10T16:17:57.125Z,1.15
2023-05-10T16:19:59.552Z,0.95
2023-05-10T16:22:02.044Z,0.82
2023-05-10T16:24:05.320Z,1.27
2023-05-10T16:26:08.467Z,1.17
2023-05-10T16:28:11.169Z,0.93
2023-05-10T16:30:15.590Z,0.98
2023-05-10T16:32:18.297Z,0.82
2023-05-10T16:34:24.569Z,1.10
2023-05-10T16:36:27.546Z,0.90
2023-05-10T16:38:30.299Z,1.05
2023-05-10T16:40:33.455Z,0.60
2023-05-10T16:42:36.018Z,0.50
2023-05-10T16:44:41.426Z,0.68
2023-05-10T16:46:44.667Z,0.50
2023-05-10T16:48:47.472Z,0.70
2023-05-10T16:50:50.255Z,0.52
2023-05-10T16:52:52.870Z,0.70
2023-05-10T16:54:56.150Z,0.50
2023-05-10T16:56:59.191Z,0.63
2023-05-10T16:59:02.331Z,0.50
2023-05-10T17:01:05.583Z,0.60
2023-05-10T17:03:10.745Z,0.50
2023-05-10T17:05:13.944Z,0.80
2023-05-10T17:07:17.079Z,0.93
2023-05-10T17:09:21.056Z,0.75
2023-05-10T17:11:23.649Z,0.60
2023-05-10T17:13:25.888Z,0.85
2023-05-10T17:15:28.235Z,0.57
2023-05-10T17:17:30.487Z,0.70
2023-05-10T17:19:33.355Z,0.50
2023-05-10T17:21:35.658Z,0.80
2023-05-10T17:23:38.029Z,0.43
2023-05-10T17:25:43.225Z,0.52
2023-05-10T17:27:45.715Z,0.73
2023-05-10T17:29:48.203Z,0.70
2023-05-10T17:31:50.773Z,2.35
2023-05-10T17:33:53.235Z,0.80
2023-05-10T17:35:56.888Z,1.30
2023-05-10T17:37:59.238Z,0.60
2023-05-10T17:40:01.800Z,0.70
2023-05-10T17:42:04.372Z,0.98
2023-05-10T17:44:06.922Z,0.80
2023-05-10T17:46:09.715Z,1.10
2023-05-10T17:48:12.947Z,0.68
2023-05-10T17:50:16.151Z,1.00
2023-05-10T17:52:18.309Z,1.45
2023-05-10T17:54:20.761Z,0.80
2023-05-10T17:56:25.634Z,0.85
2023-05-10T17:58:28.842Z,1.13
2023-05-10T18:00:31.464Z,1.25
2023-05-10T18:02:33.976Z,1.15
2023-05-10T18:04:36.551Z,1.20
2023-05-10T18:06:40.860Z,1.00
2023-05-10T18:08:46.311Z,1.40
2023-05-10T18:10:51.711Z,1.10
2023-05-10T18:12:54.977Z,1.27
2023-05-10T18:14:57.548Z,0.95
2023-05-10T18:17:00.069Z,0.75
2023-05-10T18:19:02.442Z,0.80
2023-05-10T18:21:04.914Z,0.70
2023-05-10T18:23:07.716Z,1.13
2023-05-10T18:25:10.722Z,2.28
2023-05-10T18:27:13.023Z,1.35
2023-05-10T18:29:15.652Z,0.80
2023-05-10T18:31:18.058Z,0.73
2023-05-10T18:33:20.425Z,0.82
2023-05-10T18:35:22.966Z,1.17
2023-05-10T18:37:25.392Z,0.93
2023-05-10T18:39:27.528Z,0.98
2023-05-10T18:41:29.699Z,0.93
2023-05-10T18:43:31.683Z,1.15
2023-05-10T18:45:34.113Z,1.95
2023-05-10T18:47:36.254Z,1.75
2023-05-10T18:49:39.080Z,1.15
2023-05-10T18:51:41.236Z,1.88
2023-05-10T18:53:43.557Z,1.95
2023-05-10T18:55:46.642Z,1.50
2023-05-10T18:57:49.046Z,1.83
2023-05-10T18:59:51.369Z,2.40
2023-05-10T19:01:55.065Z,2.03
2023-05-10T19:03:59.269Z,1.10
2023-05-10T19:06:01.293Z,1.40
2023-05-10T19:08:03.352Z,0.95
2023-05-10T19:10:06.343Z,1.20
2023-05-10T19:12:09.062Z,1.52
2023-05-10T19:14:11.206Z,1.10
2023-05-10T19:16:17.175Z,1.23
2023-05-10T19:18:19.524Z,1.20
2023-05-10T19:20:22.128Z,2.00
2023-05-10T19:22:36.066Z,1.60
2023-05-10T19:24:47.190Z,1.75
2023-05-10T19:26:49.617Z,2.25
2023-05-10T19:28:53.018Z,1.80
2023-05-10T19:30:55.628Z,1.70
2023-05-10T19:32:58.453Z,2.00
2023-05-10T19:35:00.568Z,1.17
2023-05-10T19:37:02.863Z,1.40
2023-05-10T19:39:05.785Z,1.10
2023-05-10T19:41:07.791Z,1.25
2023-05-10T19:43:09.867Z,1.50
2023-05-10T19:45:16.037Z,1.50
2023-05-10T19:47:18.452Z,1.20
2023-05-10T19:49:20.544Z,1.52
2023-05-10T19:51:22.712Z,1.60
2023-05-10T19:53:24.668Z,2.13
2023-05-10T19:55:29.809Z,1.10
2023-05-10T19:57:31.872Z,1.63
2023-05-10T19:59:33.946Z,1.08
2023-05-10T20:01:36.482Z,1.30
2023-05-10T20:03:38.701Z,1.20
2023-05-10T20:05:40.867Z,0.90
2023-05-10T20:07:42.816Z,0.88
2023-05-10T20:09:44.899Z,0.70
2023-05-10T20:11:46.836Z,1.00
2023-05-10T20:13:48.774Z,0.50
2023-05-10T20:15:50.891Z,0.50
2023-05-10T20:17:53.505Z,0.50
2023-05-10T20:19:55.903Z,0.55
2023-05-10T20:21:59.063Z,0.50
2023-05-10T20:24:02.433Z,0.30
2023-05-10T20:26:05.309Z,0.40
2023-05-10T20:28:08.696Z,0.20
2023-05-10T20:30:11.872Z,0.30
2023-05-10T20:32:13.959Z,0.50
2023-05-10T20:34:16.688Z,1.15
2023-05-10T20:36:19.307Z,0.30
2023-05-10T20:38:21.870Z,0.43
2023-05-10T20:40:26.433Z,0.40
2023-05-10T20:42:28.362Z,0.35
2023-05-10T20:44:31.463Z,0.38
2023-05-10T20:46:34.328Z,0.40
2023-05-10T20:48:36.376Z,0.28
2023-05-10T20:50:38.375Z,0.30
2023-05-10T20:52:40.422Z,0.40
2023-05-10T20:54:42.397Z,0.40
2023-05-10T20:56:44.412Z,0.40
2023-05-10T20:58:46.655Z,0.40
2023-05-10T21:00:48.690Z,0.52
2023-05-10T21:02:50.916Z,0.60
2023-05-10T21:04:53.646Z,0.73
2023-05-10T21:06:57.164Z,0.55
2023-05-10T21:09:02.105Z,0.50
2023-05-10T21:11:05.815Z,0.40
2023-05-10T21:13:08.084Z,0.30
2023-05-10T21:15:10.662Z,0.20
2023-05-10T21:17:13.692Z,0.50
2023-05-10T21:19:17.227Z,0.40
2023-05-10T21:21:19.295Z,0.50
2023-05-10T21:23:21.446Z,0.30
2023-05-10T21:25:23.873Z,0.35
2023-05-10T21:27:25.955Z,0.38
2023-05-10T21:29:28.293Z,0.40
2023-05-10T21:31:30.449Z,0.40
2023-05-10T21:33:32.421Z,0.47
2023-05-10T21:35:34.557Z,0.40
2023-05-10T21:37:36.466Z,0.30
2023-05-10T21:39:38.453Z,0.55
2023-05-10T21:41:40.691Z,0.43
2023-05-10T21:43:43.843Z,0.40
2023-05-10T21:45:46.015Z,0.40
2023-05-10T21:47:48.176Z,0.85
2023-05-10T21:49:50.664Z,1.25
2023-05-10T21:51:52.678Z,0.60
2023-05-10T21:53:54.851Z,0.50
2023-05-10T21:55:56.863Z,0.50
2023-05-10T21:58:01.354Z,0.57
2023-05-10T22:00:03.997Z,0.50
2023-05-10T22:02:06.030Z,0.45
2023-05-10T22:04:08.055Z,0.50
2023-05-10T22:06:10.008Z,0.60
2023-05-10T22:08:12.160Z,0.70
2023-05-10T22:10:14.265Z,1.00
2023-05-10T22:12:16.365Z,0.50
2023-05-10T22:14:18.358Z,0.77
2023-05-10T22:16:20.364Z,0.50
2023-05-10T22:18:22.383Z,0.63
2023-05-10T22:20:24.480Z,0.60
2023-05-10T22:22:27.244Z,0.60
2023-05-10T22:24:29.507Z,0.70
2023-05-10T22:26:31.679Z,0.60
2023-05-10T22:28:33.741Z,0.70
2023-05-10T22:30:35.885Z,1.13
2023-05-10T22:32:38.219Z,0.60
2023-05-10T22:34:40.171Z,1.00
2023-05-10T22:36:42.405Z,0.60
2023-05-10T22:38:44.390Z,0.90
2023-05-10T22:40:46.321Z,0.75
2023-05-10T22:42:48.295Z,0.88
2023-05-10T22:44:50.416Z,0.60
2023-05-10T22:46:52.680Z,1.00
2023-05-10T22:48:55.073Z,1.02
2023-05-10T22:50:57.044Z,1.08
2023-05-10T22:52:58.913Z,0.80
2023-05-10T22:55:00.835Z,0.75
2023-05-10T22:57:02.892Z,1.40
2023-05-10T22:59:05.394Z,0.80
2023-05-10T23:01:07.465Z,0.70
2023-05-10T23:03:09.372Z,0.52
2023-05-10T23:05:11.368Z,0.60
2023-05-10T23:07:13.272Z,0.80
2023-05-10T23:09:15.358Z,0.88
2023-05-10T23:11:17.296Z,0.77
2023-05-10T23:13:21.295Z,0.55
2023-05-10T23:15:23.210Z,0.60
2023-05-10T23:17:25.062Z,0.50
2023-05-10T23:19:26.933Z,0.80
2023-05-10T23:21:31.389Z,0.50
2023-05-10T23:23:34.738Z,0.90
2023-05-10T23:25:37.722Z,1.95
2023-05-10T23:27:39.776Z,0.50
2023-05-10T23:29:44.934Z,0.60
2023-05-10T23:31:51.063Z,0.65
2023-05-10T23:33:54.937Z,0.60
2023-05-10T23:35:59.142Z,0.50
2023-05-10T23:38:01.151Z,0.55
2023-05-10T23:40:03.401Z,0.50
2023-05-10T23:42:05.867Z,0.70
2023-05-10T23:44:07.881Z,0.50
2023-05-10T23:46:09.821Z,0.52
2023-05-10T23:48:11.688Z,0.45
2023-05-10T23:50:13.470Z,0.75
2023-05-10T23:52:15.303Z,0.80
2023-05-10T23:54:17.234Z,0.70
2023-05-10T23:56:19.211Z,0.70
2023-05-10T23:58:22.113Z,0.57
